sensor_id;sensor_type;location;lat;lon;timestamp;pressure;altitude;pressure_sealevel;temperature;humidity
19748;BME280;10032;51.386;12.516;2022-11-02T00:00:52;100594.50;;;9.73;100.00
19748;BME280;10032;51.386;12.516;2022-11-02T00:03:18;100592.50;;;9.69;100.00
19748;BME280;10032;51.386;12.516;2022-11-02T00:05:43;100593.88;;;9.60;100.00
19748;BME280;10032;51.386;12.516;2022-11-02T00:08:09;100601.06;;;9.54;100.00
19748;BME280;10032;51.386;12.516;2022-11-02T00:10:34;100609.06;;;9.49;100.00
19748;BME280;10032;51.386;12.516;2022-11-02T00:13:00;100603.63;;;9.49;100.00
19748;BME280;10032;51.386;12.516;2022-11-02T00:15:28;100600.34;;;9.47;100.00
19748;BME280;10032;51.386;12.516;2022-11-02T00:18:01;100602.09;;;9.42;100.00
19748;BME280;10032;51.386;12.516;2022-11-02T00:20:28;100598.81;;;9.40;100.00
19748;BME280;10032;51.386;12.516;2022-11-02T00:22:58;100596.31;;;9.38;100.00
19748;BME280;10032;51.386;12.516;2022-11-02T00:25:26;100606.78;;;9.35;100.00
19748;BME280;10032;51.386;12.516;2022-11-02T00:27:52;100611.22;;;9.29;100.00
19748;BME280;10032;51.386;12.516;2022-11-02T00:30:17;100610.63;;;9.27;100.00
19748;BME280;10032;51.386;12.516;2022-11-02T00:32:43;100605.69;;;9.24;100.00
19748;BME280;10032;51.386;12.516;2022-11-02T00:35:08;100604.03;;;9.23;100.00
19748;BME280;10032;51.386;12.516;2022-11-02T00:37:34;100612.00;;;9.18;100.00
19748;BME280;10032;51.386;12.516;2022-11-02T00:39:59;100613.50;;;9.14;100.00
19748;BME280;10032;51.386;12.516;2022-11-02T00:42:25;100613.38;;;9.09;100.00
19748;BME280;10032;51.386;12.516;2022-11-02T00:44:50;100616.75;;;9.05;100.00
19748;BME280;10032;51.386;12.516;2022-11-02T00:47:15;100620.16;;;9.00;100.00
19748;BME280;10032;51.386;12.516;2022-11-02T00:49:41;100614.34;;;8.97;100.00
19748;BME280;10032;51.386;12.516;2022-11-02T00:52:06;100619.41;;;8.93;100.00
19748;BME280;10032;51.386;12.516;2022-11-02T00:54:31;100617.16;;;8.90;100.00
19748;BME280;10032;51.386;12.516;2022-11-02T00:56:57;100620.31;;;8.87;100.00
19748;BME280;10032;51.386;12.516;2022-11-02T00:59:22;100612.91;;;8.83;100.00
19748;BME280;10032;51.386;12.516;2022-11-02T01:01:48;100609.22;;;8.77;100.00
19748;BME280;10032;51.386;12.516;2022-11-02T01:04:14;100604.28;;;8.74;100.00
19748;BME280;10032;51.386;12.516;2022-11-02T01:06:41;100610.97;;;8.72;100.00
19748;BME280;10032;51.386;12.516;2022-11-02T01:09:07;100605.63;;;8.65;100.00
19748;BME280;10032;51.386;12.516;2022-11-02T01:11:33;100606.06;;;8.62;100.00
19748;BME280;10032;51.386;12.516;2022-11-02T01:13:58;100606.06;;;8.62;100.00
19748;BME280;10032;51.386;12.516;2022-11-02T01:16:24;100606.38;;;8.54;100.00
19748;BME280;10032;51.386;12.516;2022-11-02T01:18:53;100599.56;;;8.52;100.00
19748;BME280;10032;51.386;12.516;2022-11-02T01:21:19;100607.50;;;8.47;100.00
19748;BME280;10032;51.386;12.516;2022-11-02T01:23:45;100607.94;;;8.44;100.00
19748;BME280;10032;51.386;12.516;2022-11-02T01:26:10;100609.22;;;8.41;100.00
19748;BME280;10032;51.386;12.516;2022-11-02T01:28:37;100602.63;;;8.37;100.00
19748;BME280;10032;51.386;12.516;2022-11-02T01:31:04;100588.97;;;8.32;100.00
19748;BME280;10032;51.386;12.516;2022-11-02T01:33:29;100602.91;;;8.29;100.00
19748;BME280;10032;51.386;12.516;2022-11-02T01:35:55;100592.75;;;8.31;100.00
19748;BME280;10032;51.386;12.516;2022-11-02T01:38:20;100591.91;;;8.31;100.00
19748;BME280;10032;51.386;12.516;2022-11-02T01:40:46;100594.75;;;8.36;100.00
19748;BME280;10032;51.386;12.516;2022-11-02T01:43:29;100591.84;;;8.37;100.00
19748;BME280;10032;51.386;12.516;2022-11-02T01:51:09;100595.81;;;8.53;100.00
19748;BME280;10032;51.386;12.516;2022-11-02T01:53:36;100596.16;;;8.56;100.00
19748;BME280;10032;51.386;12.516;2022-11-02T01:56:03;100593.25;;;8.58;100.00
19748;BME280;10032;51.386;12.516;2022-11-02T01:58:30;100589.28;;;8.60;100.00
19748;BME280;10032;51.386;12.516;2022-11-02T02:00:58;100592.56;;;8.62;100.00
19748;BME280;10032;51.386;12.516;2022-11-02T02:03:24;100591.28;;;8.65;100.00
19748;BME280;10032;51.386;12.516;2022-11-02T02:05:59;100585.31;;;8.63;100.00
19748;BME280;10032;51.386;12.516;2022-11-02T02:08:27;100584.94;;;8.59;100.00
19748;BME280;10032;51.386;12.516;2022-11-02T02:10:57;100579.16;;;8.56;100.00
19748;BME280;10032;51.386;12.516;2022-11-02T02:13:24;100580.44;;;8.53;100.00
19748;BME280;10032;51.386;12.516;2022-11-02T02:18:27;100585.22;;;8.51;100.00
19748;BME280;10032;51.386;12.516;2022-11-02T02:29:20;100573.16;;;8.72;100.00
19748;BME280;10032;51.386;12.516;2022-11-02T02:31:54;100567.97;;;8.70;100.00
19748;BME280;10032;51.386;12.516;2022-11-02T02:34:33;100565.25;;;8.70;100.00
19748;BME280;10032;51.386;12.516;2022-11-02T02:37:04;100568.41;;;8.67;100.00
19748;BME280;10032;51.386;12.516;2022-11-02T02:39:52;100570.94;;;8.62;100.00
19748;BME280;10032;51.386;12.516;2022-11-02T02:45:13;100564.97;;;8.60;100.00
19748;BME280;10032;51.386;12.516;2022-11-02T02:48:02;100569.31;;;8.61;100.00
19748;BME280;10032;51.386;12.516;2022-11-02T02:50:38;100562.41;;;8.65;100.00
19748;BME280;10032;51.386;12.516;2022-11-02T02:53:05;100565.25;;;8.70;100.00
19748;BME280;10032;51.386;12.516;2022-11-02T02:55:37;100558.09;;;8.76;100.00
19748;BME280;10032;51.386;12.516;2022-11-02T02:58:05;100548.97;;;8.77;100.00
19748;BME280;10032;51.386;12.516;2022-11-02T03:00:33;100554.97;;;8.79;100.00
19748;BME280;10032;51.386;12.516;2022-11-02T03:03:02;100553.69;;;8.81;100.00
19748;BME280;10032;51.386;12.516;2022-11-02T03:05:33;100550.53;;;8.84;100.00
19748;BME280;10032;51.386;12.516;2022-11-02T03:08:06;100553.13;;;8.91;100.00
19748;BME280;10032;51.386;12.516;2022-11-02T03:11:13;100559.03;;;8.99;100.00
19748;BME280;10032;51.386;12.516;2022-11-02T03:14:15;100557.88;;;9.07;100.00
19748;BME280;10032;51.386;12.516;2022-11-02T03:16:56;100546.41;;;9.11;100.00
19748;BME280;10032;51.386;12.516;2022-11-02T03:22:01;100552.88;;;9.22;100.00
19748;BME280;10032;51.386;12.516;2022-11-02T03:24:34;100555.50;;;9.28;100.00
19748;BME280;10032;51.386;12.516;2022-11-02T03:29:44;100561.75;;;9.40;100.00
19748;BME280;10032;51.386;12.516;2022-11-02T03:32:22;100553.19;;;9.43;100.00
19748;BME280;10032;51.386;12.516;2022-11-02T03:34:57;100555.41;;;9.46;100.00
19748;BME280;10032;51.386;12.516;2022-11-02T03:40:08;100555.78;;;9.50;100.00
19748;BME280;10032;51.386;12.516;2022-11-02T03:42:36;100549.56;;;9.49;100.00
19748;BME280;10032;51.386;12.516;2022-11-02T03:45:09;100540.97;;;9.52;100.00
19748;BME280;10032;51.386;12.516;2022-11-02T03:47:37;100540.16;;;9.52;100.00
19748;BME280;10032;51.386;12.516;2022-11-02T03:50:07;100534.50;;;9.53;100.00
19748;BME280;10032;51.386;12.516;2022-11-02T03:52:36;100539.94;;;9.53;100.00
19748;BME280;10032;51.386;12.516;2022-11-02T03:55:17;100539.00;;;9.59;100.00
19748;BME280;10032;51.386;12.516;2022-11-02T03:57:49;100544.41;;;9.59;100.00
19748;BME280;10032;51.386;12.516;2022-11-02T04:00:18;100550.63;;;9.60;100.00
19748;BME280;10032;51.386;12.516;2022-11-02T04:02:51;100545.47;;;9.58;100.00
19748;BME280;10032;51.386;12.516;2022-11-02T04:05:17;100539.44;;;9.56;100.00
19748;BME280;10032;51.386;12.516;2022-11-02T04:07:47;100536.38;;;9.53;100.00
19748;BME280;10032;51.386;12.516;2022-11-02T04:10:32;100541.44;;;9.49;100.00
19748;BME280;10032;51.386;12.516;2022-11-02T04:12:58;100550.63;;;9.48;100.00
19748;BME280;10032;51.386;12.516;2022-11-02T04:15:41;100548.38;;;9.45;100.00
19748;BME280;10032;51.386;12.516;2022-11-02T04:18:07;100544.25;;;9.43;100.00
19748;BME280;10032;51.386;12.516;2022-11-02T04:20:51;100543.88;;;9.39;100.00
19748;BME280;10032;51.386;12.516;2022-11-02T04:23:17;100548.00;;;9.42;100.00
19748;BME280;10032;51.386;12.516;2022-11-02T04:26:01;100545.53;;;9.40;100.00
19748;BME280;10032;51.386;12.516;2022-11-02T04:28:26;100541.75;;;9.41;100.00
19748;BME280;10032;51.386;12.516;2022-11-02T04:30:52;100541.31;;;9.44;100.00
19748;BME280;10032;51.386;12.516;2022-11-02T04:33:17;100542.59;;;9.42;100.00
19748;BME280;10032;51.386;12.516;2022-11-02T04:35:59;100536.84;;;9.38;100.00
19748;BME280;10032;51.386;12.516;2022-11-02T04:38:25;100540.81;;;9.36;100.00
19748;BME280;10032;51.386;12.516;2022-11-02T04:41:24;100535.19;;;9.37;100.00
19748;BME280;10032;51.386;12.516;2022-11-02T04:44:10;100541.41;;;9.38;100.00
19748;BME280;10032;51.386;12.516;2022-11-02T04:46:37;100536.63;;;9.40;100.00
19748;BME280;10032;51.386;12.516;2022-11-02T04:49:03;100543.44;;;9.42;100.00
19748;BME280;10032;51.386;12.516;2022-11-02T04:51:30;100540.13;;;9.40;100.00
19748;BME280;10032;51.386;12.516;2022-11-02T04:53:56;100540.13;;;9.40;100.00
19748;BME280;10032;51.386;12.516;2022-11-02T04:56:23;100547.78;;;9.43;100.00
19748;BME280;10032;51.386;12.516;2022-11-02T04:58:53;100546.94;;;9.43;100.00
19748;BME280;10032;51.386;12.516;2022-11-02T05:01:20;100535.91;;;9.44;100.00
19748;BME280;10032;51.386;12.516;2022-11-02T05:03:47;100535.06;;;9.44;100.00
19748;BME280;10032;51.386;12.516;2022-11-02T05:06:17;100529.44;;;9.45;100.00
19748;BME280;10032;51.386;12.516;2022-11-02T05:08:42;100528.72;;;9.50;100.00
19748;BME280;10032;51.386;12.516;2022-11-02T05:11:08;100537.09;;;9.48;100.00
19748;BME280;10032;51.386;12.516;2022-11-02T05:13:34;100536.25;;;9.48;100.00
19748;BME280;10032;51.386;12.516;2022-11-02T05:16:00;100538.84;;;9.43;100.00
19748;BME280;10032;51.386;12.516;2022-11-02T05:18:26;100529.31;;;9.40;100.00
19748;BME280;10032;51.386;12.516;2022-11-02T05:20:55;100536.00;;;9.38;100.00
19748;BME280;10032;51.386;12.516;2022-11-02T05:23:21;100526.81;;;9.39;100.00
19748;BME280;10032;51.386;12.516;2022-11-02T05:26:01;100529.91;;;9.42;100.00
19748;BME280;10032;51.386;12.516;2022-11-02T05:28:28;100529.78;;;9.37;100.00
19748;BME280;10032;51.386;12.516;2022-11-02T05:30:59;100535.19;;;9.37;100.00
19748;BME280;10032;51.386;12.516;2022-11-02T05:33:26;100533.41;;;9.31;100.00
19748;BME280;10032;51.386;12.516;2022-11-02T05:35:54;100527.41;;;9.29;100.00
19748;BME280;10032;51.386;12.516;2022-11-02T05:38:20;100530.59;;;9.26;100.00
19748;BME280;10032;51.386;12.516;2022-11-02T05:40:53;100525.84;;;9.22;100.00
19748;BME280;10032;51.386;12.516;2022-11-02T05:43:19;100524.44;;;9.19;100.00
19748;BME280;10032;51.386;12.516;2022-11-02T05:45:50;100533.16;;;9.21;100.00
19748;BME280;10032;51.386;12.516;2022-11-02T05:48:15;100528.91;;;9.14;100.00
19748;BME280;10032;51.386;12.516;2022-11-02T05:50:41;100527.00;;;9.14;100.00
19748;BME280;10032;51.386;12.516;2022-11-02T05:53:06;100528.28;;;9.12;100.00
19748;BME280;10032;51.386;12.516;2022-11-02T05:55:31;100535.13;;;9.14;100.00
19748;BME280;10032;51.386;12.516;2022-11-02T05:57:57;100533.59;;;9.18;100.00
19748;BME280;10032;51.386;12.516;2022-11-02T06:00:22;100530.19;;;9.23;100.00
19748;BME280;10032;51.386;12.516;2022-11-02T06:02:54;100530.59;;;9.38;100.00
19748;BME280;10032;51.386;12.516;2022-11-02T06:05:20;100535.44;;;9.47;100.00
19748;BME280;10032;51.386;12.516;2022-11-02T06:07:45;100525.69;;;9.58;100.00
19748;BME280;10032;51.386;12.516;2022-11-02T06:10:10;100531.00;;;9.64;100.00
19748;BME280;10032;51.386;12.516;2022-11-02T06:12:35;100526.75;;;9.68;100.00
19748;BME280;10032;51.386;12.516;2022-11-02T06:15:01;100538.28;;;9.75;100.00
19748;BME280;10032;51.386;12.516;2022-11-02T06:17:26;100544.41;;;9.82;100.00
19748;BME280;10032;51.386;12.516;2022-11-02T06:19:52;100534.28;;;9.89;100.00
19748;BME280;10032;51.386;12.516;2022-11-02T06:22:17;100551.81;;;9.98;100.00
19748;BME280;10032;51.386;12.516;2022-11-02T06:24:42;100549.03;;;10.05;100.00
19748;BME280;10032;51.386;12.516;2022-11-02T06:27:08;100552.66;;;10.10;100.00
19748;BME280;10032;51.386;12.516;2022-11-02T06:29:33;100560.31;;;10.13;100.00
19748;BME280;10032;51.386;12.516;2022-11-02T06:31:58;100568.56;;;10.18;100.00
19748;BME280;10032;51.386;12.516;2022-11-02T06:34:23;100572.44;;;10.22;100.00
19748;BME280;10032;51.386;12.516;2022-11-02T06:36:49;100582.78;;;10.25;100.00
19748;BME280;10032;51.386;12.516;2022-11-02T06:39:14;100585.50;;;10.25;100.00
19748;BME280;10032;51.386;12.516;2022-11-02T06:41:40;100588.09;;;10.32;100.00
19748;BME280;10032;51.386;12.516;2022-11-02T06:44:05;100580.91;;;10.37;100.00
19748;BME280;10032;51.386;12.516;2022-11-02T06:46:30;100591.25;;;10.40;100.00
19748;BME280;10032;51.386;12.516;2022-11-02T06:48:56;100583.00;;;10.47;100.00
19748;BME280;10032;51.386;12.516;2022-11-02T06:51:22;100587.25;;;10.54;100.00
19748;BME280;10032;51.386;12.516;2022-11-02T06:53:48;100584.13;;;10.62;100.00
19748;BME280;10032;51.386;12.516;2022-11-02T06:56:13;100584.00;;;10.69;100.00
19748;BME280;10032;51.386;12.516;2022-11-02T06:58:39;100589.31;;;10.75;100.00
19748;BME280;10032;51.386;12.516;2022-11-02T07:01:06;100590.50;;;10.79;100.00
19748;BME280;10032;51.386;12.516;2022-11-02T07:03:32;100592.81;;;10.87;100.00
19748;BME280;10032;51.386;12.516;2022-11-02T07:05:58;100608.34;;;10.92;100.00
19748;BME280;10032;51.386;12.516;2022-11-02T07:08:24;100603.00;;;10.97;100.00
19748;BME280;10032;51.386;12.516;2022-11-02T07:10:49;100609.28;;;10.97;100.00
19748;BME280;10032;51.386;12.516;2022-11-02T07:13:15;100612.41;;;11.06;100.00
19748;BME280;10032;51.386;12.516;2022-11-02T07:15:43;100606.03;;;11.12;100.00
19748;BME280;10032;51.386;12.516;2022-11-02T07:18:09;100616.75;;;11.18;100.00
19748;BME280;10032;51.386;12.516;2022-11-02T07:20:35;100612.00;;;11.25;100.00
19748;BME280;10032;51.386;12.516;2022-11-02T07:23:02;100624.09;;;11.34;100.00
19748;BME280;10032;51.386;12.516;2022-11-02T07:25:28;100619.94;;;11.43;100.00
19748;BME280;10032;51.386;12.516;2022-11-02T07:27:58;100629.31;;;11.52;100.00
19748;BME280;10032;51.386;12.516;2022-11-02T07:30:28;100621.38;;;11.62;100.00
19748;BME280;10032;51.386;12.516;2022-11-02T07:32:54;100629.72;;;11.72;100.00
19748;BME280;10032;51.386;12.516;2022-11-02T07:35:19;100632.03;;;11.80;100.00
19748;BME280;10032;51.386;12.516;2022-11-02T07:37:56;100629.97;;;11.87;100.00
19748;BME280;10032;51.386;12.516;2022-11-02T07:40:22;100636.97;;;12.00;100.00
19748;BME280;10032;51.386;12.516;2022-11-02T07:42:47;100627.91;;;12.11;100.00
19748;BME280;10032;51.386;12.516;2022-11-02T07:45:13;100635.47;;;12.25;100.00
19748;BME280;10032;51.386;12.516;2022-11-02T07:47:44;100628.16;;;12.26;100.00
19748;BME280;10032;51.386;12.516;2022-11-02T07:50:11;100645.03;;;12.28;100.00
19748;BME280;10032;51.386;12.516;2022-11-02T07:52:52;100642.31;;;12.28;100.00
19748;BME280;10032;51.386;12.516;2022-11-02T07:55:20;100642.38;;;12.33;100.00
19748;BME280;10032;51.386;12.516;2022-11-02T08:00:18;100644.84;;;12.51;100.00
19748;BME280;10032;51.386;12.516;2022-11-02T08:02:44;100655.84;;;12.61;100.00
19748;BME280;10032;51.386;12.516;2022-11-02T08:05:09;100648.50;;;12.61;100.00
19748;BME280;10032;51.386;12.516;2022-11-02T08:07:34;100657.22;;;12.63;100.00
19748;BME280;10032;51.386;12.516;2022-11-02T08:10:00;100658.69;;;12.71;100.00
19748;BME280;10032;51.386;12.516;2022-11-02T08:12:26;100659.09;;;12.79;100.00
19748;BME280;10032;51.386;12.516;2022-11-02T08:14:51;100654.31;;;12.86;100.00
19748;BME280;10032;51.386;12.516;2022-11-02T08:17:17;100657.66;;;12.93;100.00
19748;BME280;10032;51.386;12.516;2022-11-02T08:19:42;100653.94;;;12.99;100.00
19748;BME280;10032;51.386;12.516;2022-11-02T08:22:07;100653.47;;;13.02;100.00
19748;BME280;10032;51.386;12.516;2022-11-02T08:24:33;100645.34;;;13.07;100.00
19748;BME280;10032;51.386;12.516;2022-11-02T08:26:58;100642.69;;;13.12;100.00
19748;BME280;10032;51.386;12.516;2022-11-02T08:29:23;100637.31;;;13.17;100.00
19748;BME280;10032;51.386;12.516;2022-11-02T08:31:48;100640.53;;;13.14;100.00
19748;BME280;10032;51.386;12.516;2022-11-02T08:34:14;100642.19;;;13.15;100.00
19748;BME280;10032;51.386;12.516;2022-11-02T08:36:39;100640.34;;;13.21;100.00
19748;BME280;10032;51.386;12.516;2022-11-02T08:39:04;100646.66;;;13.26;100.00
19748;BME280;10032;51.386;12.516;2022-11-02T08:41:30;100648.94;;;13.34;100.00
19748;BME280;10032;51.386;12.516;2022-11-02T08:43:55;100657.22;;;13.44;100.00
19748;BME280;10032;51.386;12.516;2022-11-02T08:46:21;100643.13;;;13.52;100.00
19748;BME280;10032;51.386;12.516;2022-11-02T08:48:47;100651.59;;;13.56;100.00
19748;BME280;10032;51.386;12.516;2022-11-02T08:51:13;100646.56;;;13.64;100.00
19748;BME280;10032;51.386;12.516;2022-11-02T08:53:38;100648.50;;;13.69;100.00
19748;BME280;10032;51.386;12.516;2022-11-02T08:56:04;100646.63;;;13.74;100.00
19748;BME280;10032;51.386;12.516;2022-11-02T08:58:29;100640.47;;;13.84;100.00
19748;BME280;10032;51.386;12.516;2022-11-02T09:00:55;100648.97;;;13.92;100.00
19748;BME280;10032;51.386;12.516;2022-11-02T09:03:20;100652.59;;;14.03;100.00
19748;BME280;10032;51.386;12.516;2022-11-02T09:05:48;100654.34;;;14.14;100.00
19748;BME280;10032;51.386;12.516;2022-11-02T09:08:18;100647.09;;;14.24;100.00
19748;BME280;10032;51.386;12.516;2022-11-02T09:10:49;100648.81;;;14.35;100.00
19748;BME280;10032;51.386;12.516;2022-11-02T09:13:16;100639.31;;;14.43;100.00
19748;BME280;10032;51.386;12.516;2022-11-02T09:15:50;100650.59;;;14.56;100.00
19748;BME280;10032;51.386;12.516;2022-11-02T09:18:16;100648.72;;;14.67;100.00
19748;BME280;10032;51.386;12.516;2022-11-02T09:20:41;100645.25;;;14.76;100.00
19748;BME280;10032;51.386;12.516;2022-11-02T09:23:06;100659.50;;;14.88;100.00
19748;BME280;10032;51.386;12.516;2022-11-02T09:25:32;100651.38;;;14.98;100.00
19748;BME280;10032;51.386;12.516;2022-11-02T09:27:58;100657.97;;;15.07;100.00
19748;BME280;10032;51.386;12.516;2022-11-02T09:30:24;100664.28;;;15.18;100.00
19748;BME280;10032;51.386;12.516;2022-11-02T09:35:20;100664.59;;;15.31;100.00
19748;BME280;10032;51.386;12.516;2022-11-02T09:37:45;100662.47;;;15.43;100.00
19748;BME280;10032;51.386;12.516;2022-11-02T09:40:12;100659.78;;;15.53;100.00
19748;BME280;10032;51.386;12.516;2022-11-02T09:42:43;100665.84;;;15.65;100.00
19748;BME280;10032;51.386;12.516;2022-11-02T09:45:16;100665.28;;;15.68;100.00
19748;BME280;10032;51.386;12.516;2022-11-02T09:47:54;100686.63;;;15.71;100.00
19748;BME280;10032;51.386;12.516;2022-11-02T09:50:51;100669.94;;;15.78;100.00
19748;BME280;10032;51.386;12.516;2022-11-02T09:53:21;100667.22;;;15.78;100.00
19748;BME280;10032;51.386;12.516;2022-11-02T09:55:56;100678.16;;;15.88;100.00
19748;BME280;10032;51.386;12.516;2022-11-02T09:58:29;100682.28;;;16.05;100.00
19748;BME280;10032;51.386;12.516;2022-11-02T10:00:58;100672.47;;;16.19;100.00
19748;BME280;10032;51.386;12.516;2022-11-02T10:06:10;100681.50;;;16.40;100.00
19748;BME280;10032;51.386;12.516;2022-11-02T10:14:11;100692.41;;;16.65;100.00
19748;BME280;10032;51.386;12.516;2022-11-02T10:16:55;100699.78;;;16.69;100.00
19748;BME280;10032;51.386;12.516;2022-11-02T10:19:23;100694.88;;;16.76;100.00
19748;BME280;10032;51.386;12.516;2022-11-02T10:21:54;100701.97;;;16.82;100.00
19748;BME280;10032;51.386;12.516;2022-11-02T10:24:22;100698.69;;;16.75;100.00
19748;BME280;10032;51.386;12.516;2022-11-02T10:26:52;100702.53;;;16.59;100.00
19748;BME280;10032;51.386;12.516;2022-11-02T10:29:33;100709.69;;;16.50;100.00
19748;BME280;10032;51.386;12.516;2022-11-02T10:32:02;100708.03;;;16.44;100.00
19748;BME280;10032;51.386;12.516;2022-11-02T10:34:28;100708.00;;;16.54;100.00
19748;BME280;10032;51.386;12.516;2022-11-02T10:42:39;100693.72;;;16.97;100.00
19748;BME280;10032;51.386;12.516;2022-11-02T10:53:18;100693.56;;;17.37;100.00
19748;BME280;10032;51.386;12.516;2022-11-02T10:55:58;100692.75;;;17.37;100.00
19748;BME280;10032;51.386;12.516;2022-11-02T10:58:27;100705.13;;;17.24;100.00
19748;BME280;10032;51.386;12.516;2022-11-02T11:01:06;100711.19;;;17.16;100.00
19748;BME280;10032;51.386;12.516;2022-11-02T11:03:32;100691.78;;;16.98;100.00
19748;BME280;10032;51.386;12.516;2022-11-02T11:06:01;100697.84;;;16.90;100.00
19748;BME280;10032;51.386;12.516;2022-11-02T11:08:35;100711.78;;;17.03;100.00
19748;BME280;10032;51.386;12.516;2022-11-02T11:11:37;100708.19;;;17.08;100.00
19748;BME280;10032;51.386;12.516;2022-11-02T11:14:07;100704.56;;;17.22;100.00
19748;BME280;10032;51.386;12.516;2022-11-02T11:16:40;100698.56;;;17.25;100.00
19748;BME280;10032;51.386;12.516;2022-11-02T11:19:38;100693.34;;;17.24;100.00
19748;BME280;10032;51.386;12.516;2022-11-02T11:25:18;100701.81;;;17.27;100.00
19748;BME280;10032;51.386;12.516;2022-11-02T11:27:52;100710.91;;;17.18;100.00
19748;BME280;10032;51.386;12.516;2022-11-02T11:30:26;100720.47;;;17.20;100.00
19748;BME280;10032;51.386;12.516;2022-11-02T11:32:53;100710.63;;;17.19;100.00
19748;BME280;10032;51.386;12.516;2022-11-02T11:35:20;100714.16;;;17.30;100.00
19748;BME280;10032;51.386;12.516;2022-11-02T11:37:52;100706.75;;;17.40;100.00
19748;BME280;10032;51.386;12.516;2022-11-02T11:40:20;100709.94;;;17.57;100.00
19748;BME280;10032;51.386;12.516;2022-11-02T11:42:52;100702.81;;;17.61;100.00
19748;BME280;10032;51.386;12.516;2022-11-02T11:45:23;100715.44;;;17.57;100.00
19748;BME280;10032;51.386;12.516;2022-11-02T11:47:54;100706.75;;;17.40;100.00
19748;BME280;10032;51.386;12.516;2022-11-02T11:50:21;100696.31;;;17.32;100.00
19748;BME280;10032;51.386;12.516;2022-11-02T11:52:53;100709.50;;;17.25;100.00
19748;BME280;10032;51.386;12.516;2022-11-02T11:55:32;100712.00;;;17.22;100.00
19748;BME280;10032;51.386;12.516;2022-11-02T11:58:26;100709.50;;;17.25;100.00
19748;BME280;10032;51.386;12.516;2022-11-02T12:01:05;100711.97;;;17.27;100.00
19748;BME280;10032;51.386;12.516;2022-11-02T12:03:32;100709.50;;;17.25;100.00
19748;BME280;10032;51.386;12.516;2022-11-02T12:12:26;100719.97;;;17.08;99.57
19748;BME280;10032;51.386;12.516;2022-11-02T12:23:24;100707.41;;;16.97;98.17
19748;BME280;10032;51.386;12.516;2022-11-02T12:25:55;100701.13;;;16.97;95.49
19748;BME280;10032;51.386;12.516;2022-11-02T12:28:37;100698.91;;;16.99;95.92
19748;BME280;10032;51.386;12.516;2022-11-02T12:31:34;100702.47;;;16.94;94.63
19748;BME280;10032;51.386;12.516;2022-11-02T12:37:00;100707.41;;;16.97;94.24
19748;BME280;10032;51.386;12.516;2022-11-02T12:42:33;100710.69;;;16.99;94.24
19748;BME280;10032;51.386;12.516;2022-11-02T12:47:52;100700.25;;;17.06;93.74
19748;BME280;10032;51.386;12.516;2022-11-02T12:55:21;100703.59;;;16.88;90.54
19748;BME280;10032;51.386;12.516;2022-11-02T12:57:48;100700.06;;;16.73;89.71
19748;BME280;10032;51.386;12.516;2022-11-02T13:00:19;100708.31;;;16.58;88.77
19748;BME280;10032;51.386;12.516;2022-11-02T13:02:56;100704.47;;;16.44;89.38
19748;BME280;10032;51.386;12.516;2022-11-02T13:05:47;100710.44;;;16.31;89.87
19748;BME280;10032;51.386;12.516;2022-11-02T13:08:21;100716.22;;;16.24;90.66
19748;BME280;10032;51.386;12.516;2022-11-02T13:10:56;100716.22;;;16.24;90.66
19748;BME280;10032;51.386;12.516;2022-11-02T13:13:30;100703.91;;;16.22;90.32
19748;BME280;10032;51.386;12.516;2022-11-02T13:15:57;100702.53;;;16.24;90.25
19748;BME280;10032;51.386;12.516;2022-11-02T13:18:28;100716.75;;;16.31;90.90
19748;BME280;10032;51.386;12.516;2022-11-02T13:20:59;100715.38;;;16.29;90.30
19748;BME280;10032;51.386;12.516;2022-11-02T13:26:03;100710.19;;;16.22;87.78
19748;BME280;10032;51.386;12.516;2022-11-02T13:28:49;100711.00;;;16.23;88.64
19748;BME280;10032;51.386;12.516;2022-11-02T13:33:55;100703.34;;;16.25;86.36
19748;BME280;10032;51.386;12.516;2022-11-02T13:36:24;100721.13;;;16.27;87.43
19748;BME280;10032;51.386;12.516;2022-11-02T13:38:59;100714.56;;;16.28;87.51
19748;BME280;10032;51.386;12.516;2022-11-02T13:44:49;100699.25;;;16.27;86.57
19748;BME280;10032;51.386;12.516;2022-11-02T13:50:00;100707.44;;;16.22;85.64
19748;BME280;10032;51.386;12.516;2022-11-02T13:52:44;100710.16;;;16.12;86.00
19748;BME280;10032;51.386;12.516;2022-11-02T13:55:18;100715.66;;;16.07;86.04
19748;BME280;10032;51.386;12.516;2022-11-02T13:57:48;100696.78;;;16.06;86.64
19748;BME280;10032;51.386;12.516;2022-11-02T14:02:52;100693.47;;;16.04;86.51
19748;BME280;10032;51.386;12.516;2022-11-02T14:05:28;100693.22;;;16.00;85.98
19748;BME280;10032;51.386;12.516;2022-11-02T14:07:59;100711.25;;;15.91;86.87
19748;BME280;10032;51.386;12.516;2022-11-02T14:10:26;100720.81;;;15.89;87.02
19748;BME280;10032;51.386;12.516;2022-11-02T14:12:52;100716.16;;;15.89;86.79
19748;BME280;10032;51.386;12.516;2022-11-02T14:20:36;100738.25;;;15.73;86.85
19748;BME280;10032;51.386;12.516;2022-11-02T14:25:53;100743.41;;;15.69;86.53
19748;BME280;10032;51.386;12.516;2022-11-02T14:33:33;100749.97;;;15.63;86.83
19748;BME280;10032;51.386;12.516;2022-11-02T14:36:36;100752.44;;;15.65;86.90
19748;BME280;10032;51.386;12.516;2022-11-02T14:47:07;100745.00;;;15.50;87.93
19748;BME280;10032;51.386;12.516;2022-11-02T14:49:38;100748.00;;;15.49;87.76